Terminal Aerodrome Forecast
Issued by NWS St Louis, MO

Home | Current Version | Previous Version | Text Only | Print | Product List | Glossary On
Versions: 1 2 3 4 5 6 7 8 9 10 11 12 13 14 15 16 17 18 19 20 21 22 23 24 25 26 27 28 29 30 31 32 33 34 35
000
FTUS43 KLSX 272337
TAFSTL
TAF
KSTL 272337Z 2800/2906 VRB04KT P6SM BKN250
     FM280300 13006KT P6SM BKN150
     FM280900 12010KT P6SM VCSH OVC090
      TEMPO 2813/2816 5SM -SHRA OVC050
     FM281700 13013KT P6SM OVC020
     FM290400 VRB05KT 6SM -RA VCTS OVC020CB=

USA.gov is the U.S. government's official web portal to all federal, state and local government web resources and services.